Time;durP1;ratioP1;P1;durP2;ratioP2;P2;SDS_P1;SDS_P2;PMS_P1;PMS_P2;Temp;Humidity;BMP_temperature;BMP_pressure;BME280_temperature;BME280_humidity;BME280_pressure;Samples;Min_cycle;Max_cycle;Signal;HPM_P1;HPM_P2
2023/02/26 00:01:47;;;;;;;7.43;5.13;;;7.10;99.90;;;;;;5126106;27;20047;-53
2023/02/26 00:04:14;;;;;;;7.03;4.57;;;6.60;99.90;;;;;;5103845;27;20078;-54
2023/02/26 00:06:54;;;;;;;6.80;4.78;;;6.80;99.90;;;;;;5129297;27;20466;-55
2023/02/26 00:09:21;;;;;;;8.50;5.05;;;7.00;99.90;;;;;;5117872;27;20028;-53
2023/02/26 00:11:46;;;;;;;9.20;6.75;;;6.80;99.90;;;;;;5125004;27;20038;-54
2023/02/26 00:14:14;;;;;;;10.23;6.72;;;6.70;99.90;;;;;;5124159;27;20101;-52
2023/02/26 00:16:41;;;;;;;13.88;8.85;;;6.80;99.90;;;;;;5123884;27;20031;-53
2023/02/26 00:19:09;;;;;;;11.07;7.78;;;6.90;99.90;;;;;;5128370;27;20111;-52
2023/02/26 00:21:36;;;;;;;9.05;5.53;;;7.10;99.90;;;;;;5126246;27;20121;-54
2023/02/26 00:24:02;;;;;;;8.35;6.55;;;7.20;99.90;;;;;;5113806;27;20039;-54
2023/02/26 00:26:30;;;;;;;9.35;6.63;;;7.30;99.90;;;;;;5126787;27;20026;-52
2023/02/26 00:28:56;;;;;;;11.90;8.32;;;7.10;99.90;;;;;;5126283;27;20027;-55
2023/02/26 00:31:26;;;;;;;8.60;6.35;;;7.30;99.90;;;;;;5124167;27;20031;-52
2023/02/26 00:33:53;;;;;;;6.90;5.65;;;;;;;;;;5124372;27;20072;-55
2023/02/26 00:36:34;;;;;;;5.78;4.60;;;;;;;;;;5122417;27;20095;-55
2023/02/26 00:39:19;;;;;;;7.07;5.00;;;7.70;99.90;;;;;;5118585;27;20471;-53
2023/02/26 00:41:45;;;;;;;9.20;6.28;;;7.70;99.90;;;;;;5123367;27;20067;-54
2023/02/26 00:44:11;;;;;;;8.35;6.38;;;7.80;99.90;;;;;;5125318;27;20066;-53
2023/02/26 00:46:41;;;;;;;11.15;7.53;;;7.60;99.90;;;;;;5125553;27;20023;-53
2023/02/26 00:49:13;;;;;;;9.73;7.55;;;7.70;99.90;;;;;;5123061;27;20395;-55
2023/02/26 00:51:51;;;;;;;10.77;7.82;;;7.60;99.90;;;;;;5115885;27;20048;-53
2023/02/26 00:54:22;;;;;;;12.52;9.07;;;7.50;99.90;;;;;;5126164;27;20027;-54
2023/02/26 00:56:49;;;;;;;13.32;9.48;;;7.30;99.90;;;;;;5125945;27;20079;-54
2023/02/26 00:59:16;;;;;;;12.30;8.65;;;7.40;99.90;;;;;;5140906;27;20034;-52
2023/02/26 01:01:42;;;;;;;12.18;9.48;;;7.10;99.90;;;;;;5123671;27;20075;-53
2023/02/26 01:04:09;;;;;;;11.43;9.20;;;6.80;99.90;;;;;;5116982;27;20035;-54
2023/02/26 01:06:41;;;;;;;13.00;10.05;;;6.90;99.90;;;;;;5125831;27;20027;-54
2023/02/26 01:09:07;;;;;;;;;;;7.00;99.90;;;;;;5124868;27;20035;-52
2023/02/26 01:11:34;;;;;;;8.60;7.22;;;7.10;99.90;;;;;;5118377;27;20373;-53
2023/02/26 01:14:01;;;;;;;13.73;8.82;;;7.00;99.90;;;;;;5120049;27;20051;-52
2023/02/26 01:16:30;;;;;;;11.48;9.02;;;6.80;99.90;;;;;;5120988;27;20035;-54
2023/02/26 01:19:04;;;;;;;13.55;9.57;;;6.60;99.90;;;;;;5123450;27;20027;-53
2023/02/26 01:21:37;;;;;;;7.72;6.20;;;6.90;99.90;;;;;;5123138;27;20039;-53
2023/02/26 01:24:07;;;;;;;10.77;7.18;;;6.70;99.90;;;;;;5134034;27;20050;-53
2023/02/26 01:26:33;;;;;;;14.05;10.63;;;6.80;99.90;;;;;;5127971;27;20031;-54
2023/02/26 01:28:59;;;;;;;19.15;11.70;;;6.50;99.90;;;;;;5122893;27;20035;-54
2023/02/26 01:31:51;;;;;;;14.90;10.77;;;;;;;;;;5123370;27;20118;-54
2023/02/26 01:34:27;;;;;;;9.52;7.57;;;6.50;99.90;;;;;;5117233;27;20039;-54
2023/02/26 01:37:03;;;;;;;8.00;6.05;;;6.50;99.90;;;;;;5122435;27;20043;-54
2023/02/26 01:39:59;;;;;;;7.70;6.18;;;6.60;99.90;;;;;;5127783;27;20121;-54
2023/02/26 01:42:27;;;;;;;8.43;5.90;;;6.70;99.90;;;;;;5122582;27;20053;-52
2023/02/26 01:45:09;;;;;;;7.43;5.40;;;6.80;99.90;;;;;;5118574;27;20043;-53
2023/02/26 01:47:56;;;;;;;6.50;4.47;;;6.90;99.90;;;;;;5122408;27;20080;-54
2023/02/26 01:50:28;;;;;;;7.60;4.35;;;6.90;99.90;;;;;;5128054;27;20365;-53
2023/02/26 01:53:00;;;;;;;5.88;3.70;;;6.70;99.90;;;;;;5123842;27;20027;-54
2023/02/26 01:55:27;;;;;;;4.90;3.70;;;6.30;99.90;;;;;;5114760;28;20027;-52
2023/02/26 01:57:57;;;;;;;7.22;4.95;;;6.30;99.90;;;;;;5125041;27;20036;-53
2023/02/26 02:00:23;;;;;;;6.38;4.63;;;6.20;99.90;;;;;;5124701;27;20499;-52
2023/02/26 02:02:49;;;;;;;5.60;4.30;;;6.70;99.90;;;;;;5123213;27;20038;-53
2023/02/26 02:05:42;;;;;;;7.70;4.90;;;6.30;99.90;;;;;;5121440;28;20032;-54
2023/02/26 02:08:08;;;;;;;7.25;5.30;;;6.30;99.90;;;;;;5118231;28;20062;-53
2023/02/26 02:10:34;;;;;;;6.80;5.35;;;6.30;99.90;;;;;;5118076;28;20539;-55
2023/02/26 02:13:28;;;;;;;7.75;5.53;;;6.30;99.90;;;;;;5117239;28;20046;-54
2023/02/26 02:16:15;;;;;;;9.40;6.32;;;6.10;99.90;;;;;;5091545;28;20044;-54
2023/02/26 02:18:46;;;;;;;9.80;6.20;;;6.10;99.90;;;;;;5091748;28;20567;-52
2023/02/26 02:21:27;;;;;;;10.00;6.90;;;5.90;99.90;;;;;;5090318;28;20412;-59
2023/02/26 02:24:17;;;;;;;10.73;8.03;;;5.70;99.90;;;;;;5090149;28;20028;-53
2023/02/26 02:26:46;;;;;;;18.98;11.02;;;5.50;99.90;;;;;;5075241;28;20044;-55
2023/02/26 02:29:30;;;;;;;20.90;13.02;;;5.10;99.90;;;;;;5094782;28;20491;-55
2023/02/26 02:32:02;;;;;;;21.17;12.80;;;5.00;99.90;;;;;;5094278;28;20036;-54
2023/02/26 02:34:41;;;;;;;15.07;9.93;;;4.80;99.90;;;;;;5067108;28;20051;-54
2023/02/26 02:37:07;;;;;;;10.15;7.50;;;;;;;;;;5074061;28;20127;-54
2023/02/26 02:40:02;;;;;;;9.38;6.97;;;4.60;99.90;;;;;;5094382;28;20064;-52
2023/02/26 02:42:37;;;;;;;11.18;7.60;;;4.30;99.90;;;;;;5093847;28;20040;-54
2023/02/26 02:45:19;;;;;;;13.32;9.32;;;4.00;99.90;;;;;;5094424;28;20051;-53
2023/02/26 02:47:47;;;;;;;;;;;4.00;99.90;;;;;;5094413;28;20121;-54
2023/02/26 02:50:33;;;;;;;10.32;7.88;;;3.90;99.90;;;;;;5075731;28;19914;-55
2023/02/26 02:53:14;;;;;;;14.60;9.65;;;3.80;99.90;;;;;;5101278;27;20045;-52
2023/02/26 02:56:18;;;;;;;14.38;9.88;;;3.80;99.90;;;;;;5124002;27;20030;-54
2023/02/26 02:58:50;;;;;;;19.92;11.13;;;3.70;99.90;;;;;;5094199;28;20103;-54
2023/02/26 03:01:18;;;;;;;15.60;10.15;;;3.80;99.90;;;;;;5087572;28;20404;-52
2023/02/26 03:03:57;;;;;;;14.18;8.50;;;3.90;99.90;;;;;;5082935;28;20043;-55
2023/02/26 03:06:23;;;;;;;17.45;9.43;;;4.30;99.90;;;;;;5083172;28;20119;-54
2023/02/26 03:08:51;;;;;;;12.50;8.75;;;4.00;99.90;;;;;;5083196;28;20044;-55
2023/02/26 03:11:17;;;;;;;19.25;10.60;;;4.00;99.90;;;;;;5082555;28;20032;-51
2023/02/26 03:13:45;;;;;;;17.40;10.60;;;4.00;99.90;;;;;;5082716;28;20040;-53
2023/02/26 03:16:23;;;;;;;12.55;8.55;;;4.00;99.90;;;;;;5081726;28;20036;-51
2023/02/26 03:19:22;;;;;;;15.30;9.30;;;4.00;99.90;;;;;;5077862;28;20028;-54
2023/02/26 03:21:56;;;;;;;16.35;9.65;;;4.00;99.90;;;;;;5087202;28;20396;-53
2023/02/26 03:24:34;;;;;;;12.48;8.02;;;4.10;99.90;;;;;;5079392;28;20135;-52
2023/02/26 03:27:12;;;;;;;13.38;8.10;;;4.20;99.90;;;;;;5065537;28;20051;-52
2023/02/26 03:30:11;;;;;;;12.38;7.88;;;4.20;99.90;;;;;;5081922;28;20040;-52
2023/02/26 03:32:49;;;;;;;11.30;7.07;;;4.20;99.90;;;;;;5064422;28;20040;-53
2023/02/26 03:35:21;;;;;;;10.63;7.57;;;4.20;99.90;;;;;;5113837;27;20073;-54
2023/02/26 03:37:49;;;;;;;;;;;4.20;99.90;;;;;;5103218;27;20039;-54
2023/02/26 03:40:20;;;;;;;8.13;5.68;;;4.20;99.90;;;;;;5122769;27;20321;-52
2023/02/26 03:42:54;;;;;;;8.60;5.07;;;4.40;99.90;;;;;;5125484;27;20043;-53
2023/02/26 03:45:30;;;;;;;7.18;5.20;;;4.30;99.90;;;;;;5115803;27;20037;-53
2023/02/26 03:47:58;;;;;;;6.40;4.45;;;4.20;99.90;;;;;;5122887;27;20476;-53
2023/02/26 03:50:31;;;;;;;5.10;3.50;;;4.30;99.90;;;;;;5125213;27;20031;-51
2023/02/26 03:52:59;;;;;;;5.05;3.88;;;4.40;99.90;;;;;;5116320;27;20058;-53
2023/02/26 03:55:33;;;;;;;7.25;4.28;;;4.50;99.90;;;;;;5123053;27;20032;-52
2023/02/26 03:57:59;;;;;;;5.78;3.70;;;4.30;99.90;;;;;;5123181;27;20474;-54
2023/02/26 04:00:27;;;;;;;5.70;4.07;;;4.30;99.90;;;;;;5124802;27;20131;-52
2023/02/26 04:03:24;;;;;;;5.55;3.92;;;4.30;99.90;;;;;;5115953;27;20531;-52
2023/02/26 04:05:51;;;;;;;6.07;4.10;;;4.40;99.90;;;;;;5120354;27;20027;-55
2023/02/26 04:08:19;;;;;;;5.35;4.28;;;4.20;99.90;;;;;;5119109;27;20122;-53
2023/02/26 04:10:53;;;;;;;5.50;3.47;;;4.40;99.90;;;;;;5124420;27;20027;-54
2023/02/26 04:13:19;;;;;;;5.32;3.33;;;4.50;99.90;;;;;;5123750;27;20070;-52
2023/02/26 04:15:44;;;;;;;4.72;3.20;;;4.10;99.90;;;;;;5127404;27;20591;-52
2023/02/26 04:18:10;;;;;;;2.78;2.40;;;4.10;99.90;;;;;;5118211;27;20497;-53
2023/02/26 04:20:36;;;;;;;3.60;2.70;;;4.20;99.90;;;;;;5126649;27;20054;-53
2023/02/26 04:23:02;;;;;;;4.45;2.70;;;3.90;99.90;;;;;;5124470;27;20039;-54
2023/02/26 04:25:27;;;;;;;3.97;2.90;;;3.80;99.90;;;;;;5124031;27;20071;-53
2023/02/26 04:27:53;;;;;;;2.90;2.13;;;3.60;99.90;;;;;;5130874;27;20083;-52
2023/02/26 04:30:19;;;;;;;2.55;2.20;;;;;;;;;;5125646;27;20031;-53
2023/02/26 04:32:45;;;;;;;4.28;2.80;;;;;;;;;;5125027;27;20023;-55
2023/02/26 04:35:11;;;;;;;5.35;2.90;;;;;;;;;;5117588;27;20471;-51
2023/02/26 04:37:38;;;;;;;4.93;3.10;;;;;;;;;;5124380;27;20023;-55
2023/02/26 04:40:04;;;;;;;2.92;2.13;;;3.90;99.90;;;;;;5127990;27;20115;-51
2023/02/26 04:42:30;;;;;;;3.28;2.28;;;3.70;99.90;;;;;;5118162;27;20044;-54
2023/02/26 04:44:56;;;;;;;4.13;2.50;;;3.60;99.90;;;;;;5129699;27;20035;-53
2023/02/26 04:47:21;;;;;;;3.22;2.22;;;3.60;99.90;;;;;;5127976;27;20090;-51
2023/02/26 04:49:47;;;;;;;2.03;1.55;;;3.50;99.90;;;;;;5127992;27;20082;-53
2023/02/26 04:52:13;;;;;;;1.70;1.40;;;3.50;99.90;;;;;;5128354;27;20460;-52
2023/02/26 04:54:40;;;;;;;2.72;1.63;;;3.40;99.90;;;;;;5127886;27;20399;-54
2023/02/26 04:57:05;;;;;;;1.42;1.33;;;3.50;99.90;;;;;;5126544;27;20468;-54
2023/02/26 04:59:31;;;;;;;1.48;1.30;;;3.40;99.90;;;;;;5126739;27;20023;-54
2023/02/26 05:01:57;;;;;;;1.30;1.20;;;3.60;99.90;;;;;;5123553;27;20051;-52
2023/02/26 05:04:23;;;;;;;2.47;1.23;;;3.50;99.90;;;;;;5118056;27;20106;-53
2023/02/26 05:06:49;;;;;;;1.40;1.30;;;3.50;99.90;;;;;;5123077;27;20034;-52
2023/02/26 05:09:15;;;;;;;2.00;1.13;;;3.50;99.90;;;;;;5122203;27;20062;-54
2023/02/26 05:11:41;;;;;;;2.05;1.55;;;3.50;99.90;;;;;;5122896;27;20139;-52
2023/02/26 05:14:06;;;;;;;1.38;1.15;;;3.40;99.90;;;;;;5124136;27;20035;-54
2023/02/26 05:16:33;;;;;;;0.95;0.80;;;;;;;;;;5123565;27;20042;-54
2023/02/26 05:18:59;;;;;;;0.95;0.88;;;;;;;;;;5119171;27;20023;-53
2023/02/26 05:21:25;;;;;;;1.30;1.15;;;3.00;99.90;;;;;;5123732;27;20050;-54
2023/02/26 05:23:50;;;;;;;0.90;0.90;;;3.00;99.90;;;;;;5123644;27;20034;-54
2023/02/26 05:26:16;;;;;;;1.17;1.00;;;3.20;99.90;;;;;;5125713;27;20031;-54
2023/02/26 05:28:44;;;;;;;0.82;0.82;;;3.20;99.90;;;;;;5124549;27;20028;-52
2023/02/26 05:31:11;;;;;;;0.95;0.93;;;3.30;99.90;;;;;;5124348;27;20035;-52
2023/02/26 05:33:37;;;;;;;0.90;0.90;;;3.40;99.90;;;;;;5125156;27;20031;-52
2023/02/26 05:36:03;;;;;;;1.50;0.90;;;3.40;99.90;;;;;;5124100;27;20039;-52
2023/02/26 05:38:29;;;;;;;0.90;0.80;;;3.60;99.90;;;;;;5071297;27;20046;-54
2023/02/26 05:40:56;;;;;;;1.30;1.20;;;3.60;99.90;;;;;;5125141;27;20457;-54
2023/02/26 05:43:22;;;;;;;1.42;1.00;;;3.60;99.90;;;;;;5127096;27;20382;-54
2023/02/26 05:45:49;;;;;;;3.08;1.67;;;3.80;99.90;;;;;;5084319;27;20040;-54
2023/02/26 05:48:15;;;;;;;1.60;1.38;;;3.90;99.90;;;;;;5091200;28;20444;-52
2023/02/26 05:50:41;;;;;;;1.55;1.40;;;4.10;99.90;;;;;;5090258;28;20063;-53
2023/02/26 05:53:07;;;;;;;1.98;1.48;;;4.00;99.90;;;;;;5090762;28;20102;-54
2023/02/26 05:55:33;;;;;;;1.45;1.10;;;4.20;99.90;;;;;;5073839;28;20064;-51
2023/02/26 05:57:59;;;;;;;1.35;1.00;;;4.30;99.90;;;;;;5091135;28;20094;-52
2023/02/26 06:00:25;;;;;;;2.70;1.80;;;4.30;99.90;;;;;;5089911;28;20380;-53
2023/02/26 06:02:50;;;;;;;2.85;1.50;;;4.30;99.90;;;;;;5089118;28;20032;-55
2023/02/26 06:05:16;;;;;;;3.92;1.58;;;4.40;99.90;;;;;;5089805;28;20407;-52
2023/02/26 06:07:42;;;;;;;3.58;2.00;;;4.50;99.90;;;;;;5039356;28;20048;-55
2023/02/26 06:10:08;;;;;;;4.97;2.30;;;4.60;99.90;;;;;;5090346;28;20024;-55
2023/02/26 06:12:35;;;;;;;2.55;1.48;;;4.60;99.90;;;;;;5039166;28;20450;-53
2023/02/26 06:15:01;;;;;;;2.40;2.10;;;4.40;99.90;;;;;;5089925;28;20123;-54
2023/02/26 06:17:26;;;;;;;2.05;1.50;;;4.50;99.90;;;;;;5089659;28;20443;-54
2023/02/26 06:19:52;;;;;;;2.13;1.73;;;4.30;99.90;;;;;;5077284;28;20046;-52
2023/02/26 06:22:18;;;;;;;2.30;1.95;;;4.10;99.90;;;;;;5131250;28;20079;-52
2023/02/26 06:24:44;;;;;;;2.95;1.83;;;4.10;99.90;;;;;;5131195;28;20140;-53
2023/02/26 06:27:10;;;;;;;2.97;2.67;;;4.20;99.90;;;;;;5126949;28;20054;-54
2023/02/26 06:29:36;;;;;;;4.75;2.78;;;4.40;99.90;;;;;;5128623;28;20074;-53
2023/02/26 06:32:03;;;;;;;5.43;2.65;;;4.60;99.90;;;;;;5127010;28;20040;-55
2023/02/26 06:34:29;;;;;;;3.47;2.25;;;4.50;99.90;;;;;;5083732;28;20116;-53
2023/02/26 06:36:54;;;;;;;10.40;5.30;;;4.60;99.90;;;;;;5126013;28;20076;-52
2023/02/26 06:39:20;;;;;;;3.35;2.60;;;4.70;99.90;;;;;;5128513;28;20047;-53
2023/02/26 06:41:46;;;;;;;4.05;2.78;;;4.90;99.90;;;;;;5125817;28;20039;-55
2023/02/26 06:44:12;;;;;;;3.50;2.42;;;4.90;99.90;;;;;;5128615;28;20092;-54
2023/02/26 06:46:37;;;;;;;4.45;2.40;;;4.80;99.90;;;;;;5126012;28;20031;-56
2023/02/26 06:49:04;;;;;;;3.15;2.15;;;4.70;99.90;;;;;;5128088;28;20479;-53
2023/02/26 06:51:29;;;;;;;4.25;2.95;;;4.60;99.90;;;;;;5126988;28;20035;-51
2023/02/26 06:53:56;;;;;;;3.92;3.05;;;4.60;99.90;;;;;;5090305;28;20032;-53
2023/02/26 06:56:22;;;;;;;3.72;2.80;;;4.90;99.90;;;;;;5126094;28;20039;-54
2023/02/26 06:58:48;;;;;;;4.35;3.42;;;5.00;99.90;;;;;;5124584;28;20062;-56
2023/02/26 07:01:14;;;;;;;3.97;2.67;;;5.10;99.90;;;;;;5131291;27;20491;-52
2023/02/26 07:03:40;;;;;;;4.43;2.92;;;4.80;99.90;;;;;;5131928;28;20050;-55
2023/02/26 07:06:08;;;;;;;3.53;2.30;;;4.70;99.90;;;;;;5129845;28;20070;-52
2023/02/26 07:08:35;;;;;;;3.25;2.60;;;4.60;99.90;;;;;;5143436;27;20023;-53
2023/02/26 07:11:01;;;;;;;4.72;3.72;;;4.60;99.90;;;;;;5145704;27;20031;-55
2023/02/26 07:13:26;;;;;;;5.43;4.20;;;4.60;99.90;;;;;;5129913;27;20558;-51
2023/02/26 07:15:52;;;;;;;5.90;4.07;;;4.90;99.90;;;;;;5130607;27;20054;-53
2023/02/26 07:18:18;;;;;;;7.22;3.95;;;4.90;99.90;;;;;;5126280;27;20029;-55
2023/02/26 07:20:47;;;;;;;5.53;4.63;;;5.20;99.90;;;;;;5124626;27;20034;-55
2023/02/26 07:23:13;;;;;;;4.25;3.30;;;5.40;99.90;;;;;;5131353;27;20027;-54
2023/02/26 07:25:39;;;;;;;6.32;4.93;;;5.10;99.90;;;;;;5117581;27;20042;-52
2023/02/26 07:28:05;;;;;;;7.90;6.68;;;;;;;;;;5134352;27;20038;-56
2023/02/26 07:30:31;;;;;;;8.55;6.75;;;6.10;99.90;;;;;;5133803;27;20072;-54
2023/02/26 07:33:00;;;;;;;6.80;6.15;;;5.30;99.90;;;;;;5131472;27;20028;-58
2023/02/26 07:35:26;;;;;;;12.50;8.77;;;5.50;99.90;;;;;;5107384;28;20043;-53
2023/02/26 07:37:53;;;;;;;9.60;6.15;;;5.40;99.90;;;;;;5121655;27;20050;-54
2023/02/26 07:40:19;;;;;;;7.45;5.80;;;5.50;99.90;;;;;;5127252;27;20062;-56
2023/02/26 07:42:44;;;;;;;7.30;6.18;;;5.60;99.90;;;;;;5118976;27;20062;-53
2023/02/26 07:45:11;;;;;;;21.20;15.02;;;5.50;99.90;;;;;;5126761;27;20039;-55
2023/02/26 07:47:37;;;;;;;21.23;15.57;;;5.50;99.90;;;;;;5127599;27;20028;-56
2023/02/26 07:50:04;;;;;;;23.38;17.35;;;5.50;99.90;;;;;;5123314;27;20120;-52
2023/02/26 07:52:30;;;;;;;6.45;5.70;;;5.40;99.90;;;;;;5099854;27;20035;-56
2023/02/26 07:54:56;;;;;;;8.70;7.55;;;;;;;;;;5143183;27;20471;-53
2023/02/26 07:57:22;;;;;;;5.47;4.70;;;;;;;;;;5129919;27;20031;-55
2023/02/26 07:59:48;;;;;;;4.70;4.03;;;;;;;;;;5116076;27;20085;-56
2023/02/26 08:02:15;;;;;;;4.38;3.67;;;;;;;;;;5124683;27;20407;-55
2023/02/26 08:04:42;;;;;;;4.95;4.10;;;;;;;;;;5124903;27;20035;-55
2023/02/26 08:07:09;;;;;;;5.63;4.72;;;;;;;;;;5130249;27;20031;-54
2023/02/26 08:09:35;;;;;;;5.25;4.75;;;6.00;99.90;;;;;;5130505;27;20050;-56
2023/02/26 08:12:00;;;;;;;4.97;4.28;;;6.10;99.90;;;;;;5133917;27;20047;-56
2023/02/26 08:14:26;;;;;;;5.05;4.28;;;6.00;99.90;;;;;;5130388;27;20031;-53
2023/02/26 08:16:52;;;;;;;4.45;3.63;;;5.80;99.90;;;;;;5095411;28;20051;-51
2023/02/26 08:19:18;;;;;;;4.10;3.33;;;5.80;99.90;;;;;;5094008;28;20412;-54
2023/02/26 08:21:44;;;;;;;4.75;3.92;;;5.80;99.90;;;;;;5050889;28;20157;-54
2023/02/26 08:24:11;;;;;;;5.32;4.45;;;5.90;99.90;;;;;;5067720;28;20500;-52
2023/02/26 08:26:37;;;;;;;5.95;4.35;;;5.90;99.90;;;;;;5067009;28;20063;-50
2023/02/26 08:29:04;;;;;;;4.03;3.47;;;5.90;99.90;;;;;;5069422;28;20127;-52
2023/02/26 08:31:30;;;;;;;4.22;3.80;;;6.00;99.90;;;;;;5068217;28;20036;-51
2023/02/26 08:33:57;;;;;;;5.70;4.40;;;5.90;99.90;;;;;;5093061;28;20036;-57
2023/02/26 08:36:23;;;;;;;4.15;3.75;;;5.80;99.90;;;;;;5085054;28;20526;-50
2023/02/26 08:38:49;;;;;;;4.78;4.18;;;5.50;99.90;;;;;;5093763;28;20084;-49
2023/02/26 08:41:16;;;;;;;4.20;3.17;;;5.60;99.90;;;;;;5103829;28;20126;-55
2023/02/26 08:43:42;;;;;;;9.68;8.13;;;5.50;99.90;;;;;;5101379;28;20503;-51
2023/02/26 08:46:07;;;;;;;7.78;6.95;;;5.60;99.90;;;;;;5094890;28;20111;-53
2023/02/26 08:48:33;;;;;;;11.45;9.60;;;5.40;99.90;;;;;;5119157;27;20032;-53
2023/02/26 08:50:59;;;;;;;8.13;7.20;;;5.60;99.90;;;;;;5121286;27;20033;-54
2023/02/26 08:53:24;;;;;;;11.77;10.25;;;5.60;99.90;;;;;;5124700;27;20104;-53
2023/02/26 08:55:51;;;;;;;8.95;7.75;;;5.90;99.90;;;;;;5105348;28;20031;-54
2023/02/26 08:58:18;;;;;;;9.85;8.73;;;5.90;99.90;;;;;;5104897;28;20036;-51
2023/02/26 09:00:45;;;;;;;8.77;7.72;;;5.90;99.90;;;;;;5118700;27;20047;-50
2023/02/26 09:03:11;;;;;;;8.55;7.13;;;6.20;99.90;;;;;;5124274;27;20489;-50
2023/02/26 09:05:37;;;;;;;8.10;7.30;;;6.10;99.90;;;;;;5121483;27;20027;-53
2023/02/26 09:08:03;;;;;;;8.68;7.78;;;6.10;99.90;;;;;;5123249;27;20036;-53
2023/02/26 09:10:29;;;;;;;7.38;6.60;;;5.70;99.90;;;;;;5104002;27;20031;-52
2023/02/26 09:12:55;;;;;;;9.52;8.48;;;5.90;99.90;;;;;;5129019;27;20031;-54
2023/02/26 09:15:21;;;;;;;7.30;6.53;;;5.90;99.90;;;;;;5125930;27;20039;-51
2023/02/26 09:17:46;;;;;;;8.38;6.70;;;6.00;99.90;;;;;;5123960;27;20031;-52
2023/02/26 09:20:13;;;;;;;8.70;7.80;;;6.00;99.90;;;;;;5124993;27;20036;-54
2023/02/26 09:22:38;;;;;;;8.32;7.20;;;6.10;99.90;;;;;;5086798;27;20104;-52
2023/02/26 09:25:05;;;;;;;8.52;7.03;;;6.70;99.90;;;;;;5122362;27;20032;-51
2023/02/26 09:27:31;;;;;;;10.30;8.85;;;6.20;99.90;;;;;;5128198;27;20054;-52
2023/02/26 09:29:56;;;;;;;9.75;8.20;;;6.10;99.90;;;;;;5115115;27;20027;-53
2023/02/26 09:32:22;;;;;;;8.95;8.05;;;6.10;99.90;;;;;;5125265;27;20109;-51
2023/02/26 09:34:48;;;;;;;9.60;8.02;;;6.60;99.90;;;;;;5114551;28;20038;-52
2023/02/26 09:37:14;;;;;;;9.65;8.68;;;6.40;99.90;;;;;;5140975;27;20078;-52
2023/02/26 09:39:39;;;;;;;11.27;10.13;;;6.40;99.90;;;;;;5119251;27;20433;-53
2023/02/26 09:42:34;;;;;;;10.30;9.20;;;6.40;99.90;;;;;;5123277;27;20128;-52
2023/02/26 09:45:01;;;;;;;11.25;9.63;;;6.20;99.90;;;;;;5118942;27;20044;-54
2023/02/26 09:47:38;;;;;;;12.30;9.57;;;6.30;99.90;;;;;;5125232;27;20038;-50
2023/02/26 09:50:14;;;;;;;9.45;8.45;;;6.30;99.90;;;;;;5123691;27;20063;-52
2023/02/26 09:52:43;;;;;;;12.85;11.55;;;6.50;99.90;;;;;;5120727;27;20035;-52
2023/02/26 09:55:19;;;;;;;15.73;14.05;;;6.70;99.90;;;;;;5126909;27;20501;-52
2023/02/26 09:57:48;;;;;;;8.32;7.53;;;6.70;99.90;;;;;;5123648;27;20035;-54
2023/02/26 10:00:42;;;;;;;7.68;6.75;;;6.40;99.90;;;;;;5124159;27;20042;-52
2023/02/26 10:03:33;;;;;;;8.00;7.20;;;6.50;99.90;;;;;;5119809;28;20522;-50
2023/02/26 10:06:25;;;;;;;10.20;8.23;;;6.30;99.90;;;;;;5126549;27;20107;-52
2023/02/26 10:09:06;;;;;;;9.45;8.40;;;6.10;99.90;;;;;;5127821;28;20491;-52
2023/02/26 10:12:11;;;;;;;8.52;7.63;;;6.10;99.90;;;;;;5117697;28;20036;-51
2023/02/26 10:14:45;;;;;;;9.23;7.97;;;6.20;99.90;;;;;;5124461;28;20043;-52
2023/02/26 10:17:19;;;;;;;10.95;8.90;;;6.10;99.90;;;;;;5120474;28;20032;-51
2023/02/26 10:19:51;;;;;;;16.58;14.85;;;5.90;99.90;;;;;;5121017;28;20118;-50
2023/02/26 10:22:43;;;;;;;12.07;9.35;;;6.10;99.90;;;;;;5124085;28;20035;-50
2023/02/26 10:25:18;;;;;;;12.40;9.98;;;6.20;99.90;;;;;;5134057;27;20027;-49
2023/02/26 10:27:56;;;;;;;9.90;8.73;;;6.30;99.90;;;;;;5127941;28;20027;-52
2023/02/26 10:30:35;;;;;;;10.27;9.07;;;6.10;99.90;;;;;;5139825;27;20049;-49
2023/02/26 10:33:12;;;;;;;14.15;12.10;;;6.10;99.90;;;;;;5127249;28;20413;-53
2023/02/26 10:35:50;;;;;;;11.10;9.93;;;6.00;99.90;;;;;;5127095;28;20043;-53
2023/02/26 10:38:23;;;;;;;12.35;10.65;;;6.00;99.90;;;;;;5130975;28;20057;-53
2023/02/26 10:40:53;;;;;;;12.25;9.95;;;6.20;99.90;;;;;;5088941;28;20504;-50
2023/02/26 10:43:26;;;;;;;12.35;9.43;;;6.10;99.90;;;;;;5084913;28;20039;-52
2023/02/26 10:46:01;;;;;;;11.73;10.43;;;6.10;99.90;;;;;;5086824;28;20361;-55
2023/02/26 10:48:44;;;;;;;12.45;10.45;;;6.00;99.90;;;;;;5091912;28;20020;-54
2023/02/26 10:51:16;;;;;;;13.43;11.57;;;6.10;99.90;;;;;;5088825;28;20093;-51
2023/02/26 10:53:54;;;;;;;;;;;6.10;99.90;;;;;;5092195;28;20028;-54
2023/02/26 10:56:25;;;;;;;14.80;10.95;;;6.10;99.90;;;;;;5087688;28;20351;-55
2023/02/26 10:58:51;;;;;;;15.75;12.85;;;6.10;99.90;;;;;;5083020;28;20036;-50
2023/02/26 11:01:29;;;;;;;15.63;12.48;;;6.00;99.90;;;;;;5090736;28;20075;-52
2023/02/26 11:04:13;;;;;;;15.73;13.10;;;6.00;99.90;;;;;;5049778;28;20119;-51
2023/02/26 11:06:46;;;;;;;19.33;17.10;;;5.80;99.90;;;;;;5088734;28;20503;-53
2023/02/26 11:09:33;;;;;;;29.15;22.88;;;6.00;99.90;;;;;;5090835;28;20108;-54
2023/02/26 11:12:14;;;;;;;27.50;20.27;;;6.20;99.90;;;;;;5113677;27;20483;-56
2023/02/26 11:14:42;;;;;;;27.73;17.95;;;6.20;99.90;;;;;;5130181;27;20039;-52
2023/02/26 11:17:26;;;;;;;25.50;19.52;;;6.30;99.90;;;;;;5133352;27;20386;-52
2023/02/26 11:20:01;;;;;;;19.33;14.80;;;6.20;99.90;;;;;;5134130;27;20047;-54
2023/02/26 11:22:31;;;;;;;24.73;18.30;;;5.90;99.90;;;;;;5098200;27;20050;-57
2023/02/26 11:24:57;;;;;;;24.63;19.42;;;6.00;99.90;;;;;;5130441;27;20065;-54
2023/02/26 11:27:30;;;;;;;24.15;17.95;;;5.90;99.90;;;;;;5133103;27;20482;-53
2023/02/26 11:30:01;;;;;;;19.58;15.60;;;6.00;99.90;;;;;;5130177;27;20019;-57
2023/02/26 11:32:33;;;;;;;22.10;16.25;;;5.90;99.90;;;;;;5131993;27;20066;-53
2023/02/26 11:34:59;;;;;;;20.63;18.13;;;6.00;99.90;;;;;;5134562;27;20026;-54
2023/02/26 11:37:30;;;;;;;18.15;15.55;;;6.20;99.90;;;;;;5133661;27;20046;-55
2023/02/26 11:40:20;;;;;;;16.75;14.48;;;6.10;99.90;;;;;;5115898;28;20035;-61
2023/02/26 11:42:57;;;;;;;16.00;13.57;;;6.10;99.90;;;;;;5101311;27;20107;-59
2023/02/26 11:45:23;;;;;;;18.65;15.95;;;5.90;99.90;;;;;;5135254;27;20071;-61
2023/02/26 11:48:10;;;;;;;18.58;15.25;;;6.10;99.90;;;;;;5135921;27;20113;-60
2023/02/26 11:50:41;;;;;;;19.27;15.20;;;6.00;99.90;;;;;;5132674;27;20031;-54
2023/02/26 11:53:17;;;;;;;16.00;13.80;;;6.10;99.90;;;;;;5102555;28;20177;-53
2023/02/26 11:55:48;;;;;;;16.58;13.55;;;6.30;99.90;;;;;;5098554;28;20467;-55
2023/02/26 11:58:24;;;;;;;16.70;14.48;;;6.20;99.90;;;;;;5103979;28;20077;-56
2023/02/26 12:00:56;;;;;;;18.80;16.13;;;6.20;99.90;;;;;;5104429;28;20052;-57
2023/02/26 12:03:29;;;;;;;16.80;13.10;;;5.90;99.90;;;;;;5099607;28;20046;-58
2023/02/26 12:05:57;;;;;;;19.60;15.70;;;5.80;99.90;;;;;;5106989;28;20413;-55
2023/02/26 12:08:39;;;;;;;19.55;15.85;;;6.00;99.90;;;;;;5102538;28;20081;-54
2023/02/26 12:11:17;;;;;;;17.73;15.82;;;5.80;99.90;;;;;;5106656;28;20040;-56
2023/02/26 12:14:06;;;;;;;19.67;15.82;;;5.90;99.90;;;;;;5112336;28;20023;-57
2023/02/26 12:16:56;;;;;;;20.95;17.73;;;5.80;99.90;;;;;;5109037;28;20084;-52
2023/02/26 12:19:55;;;;;;;20.55;16.98;;;5.90;99.90;;;;;;5086801;28;20510;-59
2023/02/26 12:22:42;;;;;;;20.65;18.10;;;5.90;99.90;;;;;;5101861;28;20506;-52
2023/02/26 12:25:23;;;;;;;21.77;17.88;;;6.10;99.90;;;;;;5134279;27;20493;-55
2023/02/26 12:28:17;;;;;;;19.02;15.73;;;6.30;99.90;;;;;;5132596;27;20023;-53
2023/02/26 12:31:01;;;;;;;19.73;16.10;;;6.00;99.90;;;;;;5130183;27;20023;-58
2023/02/26 12:34:01;;;;;;;21.42;17.23;;;6.00;99.90;;;;;;5133350;27;20038;-55
2023/02/26 12:36:42;;;;;;;18.45;15.15;;;6.00;99.90;;;;;;5122219;27;20023;-48
2023/02/26 12:39:09;;;;;;;23.50;18.90;;;5.70;99.90;;;;;;5132361;27;20113;-56
2023/02/26 12:41:41;;;;;;;21.40;15.57;;;5.80;99.90;;;;;;5122115;27;20038;-55
2023/02/26 12:44:30;;;;;;;20.25;16.83;;;5.60;99.90;;;;;;5126370;27;20084;-50
2023/02/26 12:47:38;;;;;;;17.10;13.82;;;5.80;99.90;;;;;;5055836;28;20083;-51
2023/02/26 12:50:15;;;;;;;18.83;14.98;;;5.80;99.90;;;;;;5009775;28;20033;-57
2023/02/26 12:52:56;;;;;;;15.48;12.57;;;5.90;99.90;;;;;;5009628;28;20050;-54
2023/02/26 12:55:24;;;;;;;16.30;13.50;;;5.80;99.90;;;;;;5008161;28;20056;-56
2023/02/26 12:58:15;;;;;;;19.38;15.20;;;5.80;99.90;;;;;;5010152;28;20050;-54
2023/02/26 13:01:02;;;;;;;17.77;15.10;;;5.80;99.90;;;;;;5009904;28;20666;-54
2023/02/26 13:03:45;;;;;;;15.25;11.77;;;6.00;99.90;;;;;;4986397;28;20030;-57
2023/02/26 13:06:15;;;;;;;16.25;13.50;;;6.00;99.90;;;;;;5010155;28;20038;-57
2023/02/26 13:08:58;;;;;;;17.15;13.73;;;6.20;99.90;;;;;;5010018;28;20452;-54
2023/02/26 13:11:46;;;;;;;16.98;12.73;;;6.30;99.90;;;;;;5009167;28;20053;-56
2023/02/26 13:14:47;;;;;;;18.63;15.25;;;6.40;99.90;;;;;;5003582;28;20065;-55
2023/02/26 13:17:25;;;;;;;16.70;14.52;;;6.50;99.90;;;;;;4992057;28;20037;-61
2023/02/26 13:20:14;;;;;;;18.00;13.98;;;6.50;99.90;;;;;;5009405;28;20072;-53